createdAt,value
2019-04-30T00:03:35.394Z,9.30
2019-04-30T00:08:35.510Z,9.20
2019-04-30T00:13:28.560Z,9.10
2019-04-30T00:18:25.476Z,9.10
2019-04-30T00:23:22.726Z,9.10
2019-04-30T00:28:19.592Z,9.10
2019-04-30T00:33:21.959Z,9.10
2019-04-30T00:38:12.548Z,9.00
2019-04-30T00:43:09.149Z,8.90
2019-04-30T00:48:06.110Z,9.00
2019-04-30T00:53:05.979Z,9.00
2019-04-30T00:57:59.030Z,8.90
2019-04-30T01:03:15.315Z,9.00
2019-04-30T01:08:11.708Z,8.90
2019-04-30T01:13:11.792Z,8.90
2019-04-30T01:18:04.928Z,8.90
2019-04-30T01:23:02.996Z,8.90
2019-04-30T01:27:58.587Z,9.00
2019-04-30T01:32:56.706Z,8.80
2019-04-30T01:37:51.503Z,8.70
2019-04-30T01:42:48.672Z,8.70
2019-04-30T01:47:44.468Z,8.70
2019-04-30T01:52:55.236Z,8.70
2019-04-30T01:57:59.526Z,8.70
2019-04-30T02:02:55.257Z,8.70
2019-04-30T02:07:50.890Z,8.80
2019-04-30T02:12:46.536Z,8.70
2019-04-30T02:17:42.188Z,8.70
2019-04-30T02:22:38.989Z,8.70
2019-04-30T02:27:34.708Z,8.60
2019-04-30T02:32:31.605Z,8.50
2019-04-30T02:37:30.378Z,8.40
2019-04-30T02:42:26.473Z,8.30
2019-04-30T02:47:24.355Z,8.10
2019-04-30T02:52:21.717Z,8.00
2019-04-30T02:57:20.422Z,7.90
2019-04-30T03:02:14.653Z,7.90
2019-04-30T03:07:10.299Z,7.80
2019-04-30T03:12:05.995Z,7.70
2019-04-30T03:17:29.900Z,7.60
2019-04-30T03:22:29.958Z,7.50
2019-04-30T03:27:25.120Z,7.50
2019-04-30T03:32:22.037Z,7.40
2019-04-30T03:37:19.809Z,7.40
2019-04-30T03:42:15.339Z,7.30
2019-04-30T03:47:11.234Z,7.30
2019-04-30T03:52:05.164Z,7.40
2019-04-30T03:57:01.088Z,7.40
2019-04-30T04:02:30.213Z,7.50
2019-04-30T04:07:44.722Z,7.50
2019-04-30T04:12:41.332Z,7.50
2019-04-30T04:17:39.482Z,7.60
2019-04-30T04:22:34.241Z,7.60
2019-04-30T04:27:30.471Z,7.60
2019-04-30T04:32:26.517Z,7.70
2019-04-30T04:37:22.236Z,7.80
2019-04-30T04:42:19.385Z,7.80
2019-04-30T04:47:16.268Z,7.90
2019-04-30T04:52:12.112Z,8.00
2019-04-30T04:57:14.864Z,8.10
2019-04-30T05:02:23.999Z,8.20
2019-04-30T05:07:19.706Z,8.30
2019-04-30T05:12:15.333Z,8.30
2019-04-30T05:17:10.937Z,8.30
2019-04-30T05:22:06.607Z,8.40
2019-04-30T05:27:02.257Z,8.70
2019-04-30T05:31:58.535Z,9.40
2019-04-30T05:36:54.207Z,9.90
2019-04-30T05:41:49.830Z,10.20
2019-04-30T05:46:45.451Z,10.30
2019-04-30T05:51:52.633Z,10.40
2019-04-30T05:56:39.864Z,10.50
2019-04-30T06:01:35.642Z,10.60
2019-04-30T06:06:33.618Z,10.70
2019-04-30T06:11:49.203Z,10.60
2019-04-30T06:17:04.472Z,10.60
2019-04-30T06:22:07.407Z,10.60
2019-04-30T06:26:58.982Z,10.60
2019-04-30T06:31:54.814Z,10.60
2019-04-30T06:36:53.790Z,10.60
2019-04-30T06:47:50.403Z,10.50
2019-04-30T08:31:59.352Z,9.90
2019-04-30T08:37:12.703Z,10.00
2019-04-30T09:38:26.306Z,10.40
2019-04-30T09:43:28.698Z,10.40
2019-04-30T12:14:39.449Z,11.20
2019-04-30T12:19:35.510Z,11.20
2019-04-30T12:24:31.344Z,11.20
2019-04-30T12:29:29.152Z,11.20
2019-04-30T12:34:24.853Z,11.20
2019-04-30T12:39:22.176Z,11.20
2019-04-30T12:44:18.018Z,11.30
2019-04-30T12:49:14.270Z,11.40
2019-04-30T12:54:20.421Z,11.40
2019-04-30T12:59:16.253Z,11.40
2019-04-30T13:04:12.396Z,11.50
2019-04-30T13:09:11.149Z,11.50
2019-04-30T13:14:10.118Z,11.50
2019-04-30T13:19:05.087Z,11.60
2019-04-30T13:24:01.013Z,11.70
2019-04-30T13:29:02.513Z,11.90
2019-04-30T13:34:19.303Z,12.00
2019-04-30T13:39:20.685Z,12.10
2019-04-30T13:44:20.011Z,12.10
2019-04-30T13:49:15.725Z,12.20
2019-04-30T13:54:11.504Z,12.30
2019-04-30T13:59:07.411Z,12.40
2019-04-30T14:04:12.546Z,12.50
2019-04-30T14:09:18.681Z,12.60
2019-04-30T14:14:14.603Z,12.70
2019-04-30T14:19:10.397Z,12.90
2019-04-30T14:24:09.370Z,13.00
2019-04-30T14:29:04.734Z,13.10
2019-04-30T14:34:00.567Z,13.10
2019-04-30T14:39:10.527Z,13.10
2019-04-30T14:43:59.924Z,13.10
2019-04-30T14:49:00.528Z,13.10
2019-04-30T14:54:09.469Z,13.00
2019-04-30T14:59:23.085Z,12.90
2019-04-30T15:04:20.463Z,13.00
2019-04-30T15:09:18.018Z,13.00
2019-04-30T15:14:13.854Z,13.00
2019-04-30T15:19:09.602Z,13.00
2019-04-30T15:24:29.375Z,13.00
2019-04-30T15:29:25.364Z,13.00
2019-04-30T15:34:21.090Z,13.00
2019-04-30T15:39:35.261Z,13.00
2019-04-30T15:44:31.136Z,13.00
2019-04-30T15:49:26.867Z,13.00
2019-04-30T15:54:22.662Z,13.00
2019-04-30T15:59:32.446Z,13.00
2019-04-30T16:04:50.892Z,13.00
2019-04-30T16:10:05.523Z,13.00
2019-04-30T16:15:01.854Z,13.00
2019-04-30T16:19:57.629Z,12.80
2019-04-30T16:24:54.763Z,12.80
2019-04-30T16:29:50.591Z,12.80
2019-04-30T16:34:46.347Z,12.80
2019-04-30T16:39:42.105Z,12.80
2019-04-30T16:44:38.169Z,12.80
2019-04-30T16:49:34.015Z,12.80
2019-04-30T16:54:31.888Z,12.70
2019-04-30T16:59:33.962Z,12.80
2019-04-30T17:04:29.232Z,12.80
2019-04-30T17:09:44.982Z,12.80
2019-04-30T17:14:41.950Z,12.70
2019-04-30T17:19:39.345Z,12.80
2019-04-30T17:24:35.863Z,12.70
2019-04-30T17:29:32.227Z,12.70
2019-04-30T17:34:30.937Z,12.80
2019-04-30T17:39:27.586Z,12.70
2019-04-30T17:44:23.320Z,12.70
2019-04-30T17:49:19.087Z,12.70
2019-04-30T17:54:15.179Z,12.70
2019-04-30T17:59:11.227Z,12.60
2019-04-30T18:04:09.622Z,12.60
2019-04-30T18:09:10.779Z,12.60
2019-04-30T18:14:08.840Z,12.60
2019-04-30T18:19:16.319Z,12.60
2019-04-30T18:24:29.733Z,12.60
2019-04-30T18:29:25.558Z,12.50
2019-04-30T18:34:20.606Z,12.40
2019-04-30T18:39:18.897Z,12.30
2019-04-30T18:44:15.253Z,12.20
2019-04-30T18:49:11.023Z,12.20
2019-04-30T18:54:07.308Z,12.30
2019-04-30T18:59:04.095Z,12.20
2019-04-30T19:04:01.154Z,12.20
2019-04-30T19:09:29.691Z,12.10
2019-04-30T19:14:41.716Z,11.90
2019-04-30T19:19:50.269Z,11.80
2019-04-30T19:24:55.616Z,11.70
2019-04-30T19:29:43.471Z,11.70
2019-04-30T19:34:39.444Z,11.50
2019-04-30T19:39:35.354Z,11.40
2019-04-30T19:44:31.510Z,11.30
2019-04-30T19:49:27.281Z,11.30
2019-04-30T19:54:23.092Z,11.20
2019-04-30T19:59:19.383Z,11.10
2019-04-30T20:04:15.393Z,11.10
2019-04-30T20:09:11.782Z,11.00
2019-04-30T20:14:08.566Z,11.00
2019-04-30T20:19:05.454Z,10.90
2019-04-30T20:24:02.982Z,10.90
2019-04-30T20:28:59.122Z,10.90
2019-04-30T20:33:55.022Z,10.90
2019-04-30T20:39:18.894Z,10.90
2019-04-30T20:44:14.770Z,10.80
2019-04-30T20:49:10.475Z,10.80
2019-04-30T20:54:06.543Z,10.80
2019-04-30T20:59:06.294Z,10.70
2019-04-30T21:04:01.471Z,10.80
2019-04-30T21:08:57.397Z,11.10
2019-04-30T21:13:53.385Z,11.50
2019-04-30T21:18:49.444Z,11.70
2019-04-30T21:23:45.301Z,11.70
2019-04-30T21:28:42.728Z,11.70
2019-04-30T21:33:43.987Z,11.70
2019-04-30T21:38:41.537Z,11.60
2019-04-30T21:43:37.625Z,11.50
2019-04-30T21:48:38.410Z,11.50
2019-04-30T21:53:34.434Z,11.40
2019-04-30T21:58:30.689Z,11.30
2019-04-30T22:03:26.940Z,11.30
2019-04-30T22:08:22.701Z,11.20
2019-04-30T22:13:18.568Z,11.10
2019-04-30T22:18:14.369Z,11.10
2019-04-30T22:23:10.006Z,11.00
2019-04-30T22:28:06.676Z,10.80
2019-04-30T22:33:02.312Z,10.70
2019-04-30T22:37:59.980Z,10.60
2019-04-30T22:42:56.196Z,10.40
2019-04-30T22:47:51.868Z,10.20
2019-04-30T22:52:47.529Z,10.00
2019-04-30T22:57:43.234Z,9.80
2019-04-30T23:02:48.870Z,9.60
2019-04-30T23:07:44.574Z,9.50
2019-04-30T23:12:40.242Z,9.50
2019-04-30T23:17:35.921Z,9.40
2019-04-30T23:22:31.668Z,9.30
2019-04-30T23:27:27.265Z,9.30
2019-04-30T23:32:22.909Z,9.30
2019-04-30T23:37:18.501Z,9.20
2019-04-30T23:42:14.162Z,9.20
2019-04-30T23:47:09.823Z,9.20
2019-04-30T23:52:05.560Z,9.30
2019-04-30T23:57:01.249Z,9.20
